Time;durP1;ratioP1;P1;durP2;ratioP2;P2;SDS_P1;SDS_P2;PMS_P1;PMS_P2;Temp;Humidity;BMP_temperature;BMP_pressure;BME280_temperature;BME280_humidity;BME280_pressure;Samples;Min_cycle;Max_cycle;Signal;HPM_P1;HPM_P2
2023/04/13 00:02:13;;;;;;;3.10;1.38;;;;;;;11.00;100.00;99101.38;5040539;28;20040;-73
2023/04/13 00:04:41;;;;;;;3.30;1.45;;;;;;;11.02;100.00;99108.34;5041002;28;20041;-73
2023/04/13 00:07:15;;;;;;;3.35;1.40;;;;;;;11.07;100.00;99111.69;5042463;28;20052;-73
2023/04/13 00:09:41;;;;;;;3.90;1.45;;;;;;;11.09;100.00;99115.16;5042480;28;20036;-73
2023/04/13 00:12:06;;;;;;;4.15;1.45;;;;;;;11.08;100.00;99123.13;5044985;28;20044;-73
2023/04/13 00:14:32;;;;;;;3.22;1.40;;;;;;;11.05;100.00;99132.00;5042764;28;20051;-73
2023/04/13 00:16:58;;;;;;;3.65;1.40;;;;;;;11.03;100.00;99123.28;5046001;28;20041;-73
2023/04/13 00:19:24;;;;;;;3.75;1.58;;;;;;;11.05;100.00;99133.78;5042600;28;20040;-73
2023/04/13 00:21:51;;;;;;;2.72;1.50;;;;;;;11.03;100.00;99130.31;5045766;28;20044;-73
2023/04/13 00:24:18;;;;;;;5.28;1.45;;;;;;;11.00;100.00;99119.84;5053969;28;20025;-73
2023/04/13 00:26:43;;;;;;;3.25;1.60;;;;;;;10.92;100.00;99112.16;5045049;28;20029;-72
2023/04/13 00:29:09;;;;;;;3.28;1.63;;;;;;;10.85;100.00;99118.56;5043474;28;20088;-73
2023/04/13 00:31:34;;;;;;;2.88;1.60;;;;;;;10.83;100.00;99125.66;5047086;28;20036;-73
2023/04/13 00:34:00;;;;;;;2.78;1.65;;;;;;;10.75;100.00;99131.16;5043549;28;20046;-73
2023/04/13 00:36:27;;;;;;;2.72;1.42;;;;;;;10.70;100.00;99123.38;5044279;28;20402;-73
2023/04/13 00:38:56;;;;;;;2.97;1.70;;;;;;;10.65;100.00;99127.03;5025832;28;20037;-73
2023/04/13 00:41:23;;;;;;;2.50;1.40;;;;;;;10.62;100.00;99138.56;5049840;28;20060;-73
2023/04/13 00:43:49;;;;;;;3.08;1.67;;;;;;;10.58;100.00;99136.03;5044709;28;20037;-73
2023/04/13 00:46:17;;;;;;;3.25;1.45;;;;;;;10.52;100.00;99129.16;5042807;28;20026;-73
2023/04/13 00:48:44;;;;;;;3.53;1.60;;;;;;;10.44;100.00;99131.16;5050950;28;20052;-73
2023/04/13 00:51:10;;;;;;;2.75;1.40;;;;;;;10.38;100.00;99137.47;5048831;28;20059;-73
2023/04/13 00:53:36;;;;;;;3.80;1.25;;;;;;;10.34;100.00;99130.53;5047628;28;20037;-73
2023/04/13 00:56:05;;;;;;;2.25;1.13;;;;;;;10.27;100.00;99128.94;5045645;28;20036;-73
2023/04/13 00:58:31;;;;;;;2.78;1.20;;;;;;;10.29;100.00;99148.25;5043880;28;20034;-73
2023/04/13 01:00:57;;;;;;;2.95;1.48;;;;;;;10.26;100.00;99158.88;5044585;28;20025;-73
2023/04/13 01:03:24;;;;;;;2.20;1.33;;;;;;;10.22;100.00;99160.72;5042454;28;20640;-73
2023/04/13 01:06:16;;;;;;;5.35;2.88;;;;;;;10.19;100.00;99167.84;5028681;28;20045;-73
2023/04/13 01:08:57;;;;;;;3.38;1.60;;;;;;;10.16;100.00;99178.47;5038190;28;20029;-73
2023/04/13 01:11:40;;;;;;;3.63;1.83;;;;;;;10.04;100.00;99184.94;5045689;28;20129;-73
2023/04/13 01:14:16;;;;;;;2.95;1.92;;;;;;;10.05;100.00;99186.66;5025335;28;20036;-73
2023/04/13 01:16:47;;;;;;;4.47;1.20;;;;;;;10.03;100.00;99183.19;5024207;28;20053;-73
2023/04/13 01:19:39;;;;;;;2.53;1.02;;;;;;;9.98;100.00;99183.31;5041266;28;20033;-73
2023/04/13 01:22:06;;;;;;;3.17;1.23;;;;;;;9.98;100.00;99185.97;5025645;28;20515;-73
2023/04/13 01:25:04;;;;;;;3.35;1.00;;;;;;;9.97;100.00;99180.72;5046025;28;20041;-72
2023/04/13 01:27:46;;;;;;;3.53;1.02;;;;;;;9.95;99.71;99174.59;4999798;28;20053;-73
2023/04/13 01:30:21;;;;;;;3.45;1.20;;;;;;;9.90;99.01;99171.22;5027568;28;20502;-73
2023/04/13 01:32:50;;;;;;;3.60;0.80;;;;;;;9.84;97.40;99178.38;5030636;28;20503;-73
2023/04/13 01:35:17;;;;;;;1.40;0.80;;;;;;;9.76;94.65;99174.22;5024198;28;20033;-73
2023/04/13 01:37:43;;;;;;;1.60;0.60;;;;;;;9.81;93.64;99188.13;5024397;28;20035;-73
2023/04/13 01:40:12;;;;;;;1.70;0.70;;;;;;;9.69;92.43;99178.75;5026504;28;20053;-73
2023/04/13 01:42:42;;;;;;;1.55;0.80;;;;;;;9.70;91.91;99191.03;5024298;28;20033;-73
2023/04/13 01:45:46;;;;;;;1.42;0.60;;;;;;;9.65;91.41;99182.38;5026977;28;20040;-73
2023/04/13 01:48:20;;;;;;;2.17;0.50;;;;;;;9.56;90.24;99185.22;5020838;28;20045;-73
2023/04/13 01:51:06;;;;;;;1.98;0.38;;;;;;;9.54;89.98;99198.44;5025442;28;20055;-73
2023/04/13 01:53:43;;;;;;;0.43;0.30;;;;;;;9.44;90.04;99189.00;5027880;28;20091;-73
2023/04/13 01:56:11;;;;;;;1.05;0.40;;;;;;;9.41;89.54;99184.69;5026715;28;20107;-73
2023/04/13 01:58:39;;;;;;;1.17;0.40;;;;;;;9.37;90.62;99171.63;5041909;28;20060;-73
2023/04/13 02:01:11;;;;;;;1.40;0.38;;;;;;;9.28;89.67;99174.47;5026417;28;20037;-73
2023/04/13 02:03:37;;;;;;;2.10;0.40;;;;;;;9.26;90.81;99186.78;5026454;28;20060;-73
2023/04/13 02:06:03;;;;;;;1.90;0.40;;;;;;;9.24;90.06;99192.09;5022584;28;20038;-73
2023/04/13 02:08:30;;;;;;;2.08;0.30;;;;;;;9.17;91.21;99186.09;5026166;28;20728;-73
2023/04/13 02:10:56;;;;;;;1.88;0.60;;;;;;;9.07;91.33;99179.31;5031351;28;20068;-73
2023/04/13 02:13:22;;;;;;;1.65;0.32;;;;;;;8.99;91.95;99192.63;5029247;28;20033;-72
2023/04/13 02:15:47;;;;;;;1.92;0.40;;;;;;;8.96;92.41;99205.84;5026275;28;20051;-72
2023/04/13 02:18:13;;;;;;;0.65;0.28;;;;;;;8.95;92.80;99219.03;5041004;28;20482;-72
2023/04/13 02:20:43;;;;;;;4.03;0.30;;;;;;;8.93;93.28;99219.06;5026101;28;20082;-72
2023/04/13 02:23:14;;;;;;;1.65;0.40;;;;;;;8.86;93.26;99217.47;5029854;28;20501;-72
2023/04/13 02:25:42;;;;;;;0.70;0.40;;;;;;;8.73;94.48;99229.13;5025940;28;20498;-73
2023/04/13 02:28:10;;;;;;;1.30;0.52;;;;;;;8.67;95.43;99216.06;5023048;28;20044;-72
2023/04/13 02:30:36;;;;;;;0.90;0.22;;;;;;;8.61;95.91;99224.09;5046824;28;20510;-73
2023/04/13 02:33:02;;;;;;;1.63;0.35;;;;;;;8.51;96.16;99234.78;5032610;28;20038;-73
2023/04/13 02:35:27;;;;;;;2.88;0.50;;;;;;;8.47;97.25;99245.38;5032993;28;20067;-73
2023/04/13 02:37:54;;;;;;;4.45;1.58;;;;;;;8.38;97.69;99242.88;5042117;28;20036;-73
2023/04/13 02:40:20;;;;;;;5.60;1.63;;;;;;;8.33;98.18;99235.97;5039597;28;20037;-73
2023/04/13 02:42:45;;;;;;;3.17;0.88;;;;;;;8.27;98.90;99248.31;5043491;28;20029;-73
2023/04/13 02:45:12;;;;;;;1.45;0.40;;;;;;;8.24;98.53;99238.72;5022256;28;20245;-73
2023/04/13 02:47:39;;;;;;;0.70;0.30;;;;;;;8.23;98.12;99231.75;5025116;28;20029;-72
2023/04/13 02:50:05;;;;;;;0.77;0.30;;;;;;;8.26;98.44;99231.69;5025518;28;20418;-72
2023/04/13 02:52:39;;;;;;;0.85;0.20;;;;;;;8.21;98.29;99222.16;5025245;28;20035;-73
2023/04/13 02:55:06;;;;;;;0.70;0.50;;;;;;;8.19;98.20;99223.94;5025671;28;20033;-72
2023/04/13 02:57:44;;;;;;;0.63;0.22;;;;;;;8.16;98.70;99224.88;5025444;28;20064;-73
2023/04/13 03:00:10;;;;;;;0.73;0.20;;;;;;;8.18;98.46;99222.22;5024893;28;20072;-72
2023/04/13 03:02:43;;;;;;;1.92;0.20;;;;;;;8.21;98.59;99228.28;5023348;28;20071;-72
2023/04/13 03:05:11;;;;;;;0.98;0.30;;;;;;;8.15;98.78;99244.16;5029103;28;20028;-73
2023/04/13 03:07:36;;;;;;;0.73;0.30;;;;;;;8.15;99.14;99238.91;5025718;28;20446;-73
2023/04/13 03:10:04;;;;;;;1.05;0.30;;;;;;;8.19;98.54;99250.22;5022851;28;20033;-73
2023/04/13 03:12:31;;;;;;;0.50;0.22;;;;;;;8.21;97.63;99259.81;5025781;28;20040;-72
2023/04/13 03:15:00;;;;;;;1.13;0.30;;;;;;;8.20;97.07;99258.09;5022548;28;20036;-73
2023/04/13 03:17:27;;;;;;;0.77;0.30;;;;;;;8.18;97.03;99265.13;5024929;28;20033;-73
2023/04/13 03:19:53;;;;;;;1.15;0.40;;;;;;;8.14;96.75;99260.81;5021245;28;20029;-73
2023/04/13 03:22:22;;;;;;;0.93;0.32;;;;;;;8.12;97.11;99266.09;5021767;28;20060;-73
2023/04/13 03:24:48;;;;;;;1.00;0.35;;;;;;;8.14;96.83;99268.69;5030362;28;20033;-73
2023/04/13 03:27:22;;;;;;;1.05;0.40;;;;;;;8.16;96.63;99264.28;5025236;28;20024;-73
2023/04/13 03:29:50;;;;;;;1.88;0.38;;;;;;;8.17;96.77;99268.63;5040628;28;20511;-73
2023/04/13 03:32:20;;;;;;;1.13;0.45;;;;;;;8.18;96.79;99269.53;5025574;28;20071;-73
2023/04/13 03:34:48;;;;;;;1.58;0.63;;;;;;;8.20;96.50;99270.34;5024721;28;20029;-73
2023/04/13 03:37:14;;;;;;;1.50;0.60;;;;;;;8.19;96.42;99274.75;5021602;28;20030;-73
2023/04/13 03:39:40;;;;;;;1.00;0.30;;;;;;;8.22;96.61;99277.31;5024668;28;20037;-73
2023/04/13 03:42:08;;;;;;;1.77;0.43;;;;;;;8.22;96.41;99274.69;5025246;28;20091;-73
2023/04/13 03:44:33;;;;;;;1.13;0.50;;;;;;;8.25;96.80;99290.44;5021479;28;20431;-72
2023/04/13 03:47:01;;;;;;;1.77;0.50;;;;;;;8.23;96.20;99294.84;5028292;28;20072;-73
2023/04/13 03:49:31;;;;;;;2.42;0.50;;;;;;;8.16;97.47;99303.69;5024001;28;20063;-72
2023/04/13 03:51:57;;;;;;;1.80;0.70;;;;;;;8.14;97.45;99308.09;5029994;28;20535;-72
2023/04/13 03:54:25;;;;;;;1.63;0.63;;;;;;;8.14;97.56;99308.09;5035964;28;20036;-73
2023/04/13 03:56:50;;;;;;;0.98;0.50;;;;;;;8.13;97.15;99307.25;5037601;28;20037;-73
2023/04/13 03:59:16;;;;;;;1.60;0.55;;;;;;;8.12;97.07;99317.78;5026524;28;20578;-73
2023/04/13 04:01:42;;;;;;;1.98;0.50;;;;;;;8.14;97.21;99321.25;5027289;28;20056;-73
2023/04/13 04:04:07;;;;;;;1.33;0.50;;;;;;;8.09;97.49;99321.31;5046117;28;20041;-73
2023/04/13 04:06:32;;;;;;;2.15;0.60;;;;;;;8.07;97.65;99333.63;5040661;28;20091;-73
2023/04/13 04:09:25;;;;;;;1.70;0.60;;;;;;;8.06;97.60;99323.13;5043991;28;20048;-73
2023/04/13 04:11:50;;;;;;;1.75;0.50;;;;;;;8.03;98.35;99331.06;5026553;28;20044;-73
2023/04/13 04:14:23;;;;;;;3.90;0.85;;;;;;;8.04;98.38;99323.19;5028538;28;20056;-74
2023/04/13 04:16:56;;;;;;;3.10;0.80;;;;;;;8.09;98.10;99302.06;5028516;28;20044;-73
2023/04/13 04:19:22;;;;;;;1.17;0.60;;;;;;;8.13;98.27;99309.88;5025663;28;20411;-73
2023/04/13 04:21:48;;;;;;;1.35;0.60;;;;;;;8.17;97.44;99304.56;5036262;28;20514;-73
2023/04/13 04:24:21;;;;;;;0.90;0.50;;;;;;;8.17;98.03;99300.16;5031992;28;20133;-73
2023/04/13 04:26:53;;;;;;;3.13;0.90;;;;;;;8.21;97.45;99290.50;5034590;28;20460;-73
2023/04/13 04:29:20;;;;;;;1.08;0.47;;;;;;;8.22;97.43;99286.97;5024863;28;20041;-73
2023/04/13 04:31:51;;;;;;;2.00;0.65;;;;;;;8.22;96.17;99276.44;5027960;28;20396;-73
2023/04/13 04:34:18;;;;;;;4.65;2.33;;;;;;;8.12;97.48;99265.22;5024426;28;20033;-73
2023/04/13 04:36:49;;;;;;;2.03;0.85;;;;;;;8.07;98.00;99264.44;5049040;28;20480;-73
2023/04/13 04:39:20;;;;;;;3.60;1.27;;;;;;;8.01;98.97;99270.66;5026434;28;20065;-73
2023/04/13 04:42:01;;;;;;;2.20;0.80;;;;;;;8.00;100.00;99281.19;5031538;28;20037;-73
2023/04/13 04:44:29;;;;;;;2.40;0.70;;;;;;;7.99;100.00;99296.09;5028943;28;20496;-73
2023/04/13 04:46:58;;;;;;;1.25;0.50;;;;;;;8.08;99.28;99302.97;5028795;28;20064;-73
2023/04/13 04:49:26;;;;;;;2.08;0.60;;;;;;;8.10;99.87;99309.94;5026140;28;20078;-72
2023/04/13 04:51:54;;;;;;;2.42;0.85;;;;;;;8.17;99.79;99315.94;5025983;28;20571;-73
2023/04/13 04:54:19;;;;;;;2.83;1.00;;;;;;;8.21;99.59;99324.66;5030345;28;20094;-73
2023/04/13 04:56:47;;;;;;;1.80;0.80;;;;;;;8.21;100.00;99322.91;5031380;28;20029;-73
2023/04/13 04:59:13;;;;;;;4.30;1.70;;;;;;;8.24;100.00;99322.84;5036205;28;20502;-72
2023/04/13 05:01:51;;;;;;;11.52;7.10;;;;;;;8.25;100.00;99323.69;5024284;28;20037;-73
2023/04/13 05:04:18;;;;;;;4.90;2.28;;;;;;;8.25;100.00;99328.97;5042387;28;20106;-73
2023/04/13 05:06:43;;;;;;;5.55;2.67;;;;;;;8.20;100.00;99330.78;5033472;28;20484;-73
2023/04/13 05:09:13;;;;;;;4.88;2.38;;;;;;;8.21;100.00;99343.94;5032809;28;20445;-73
2023/04/13 05:11:44;;;;;;;2.70;1.48;;;;;;;8.20;100.00;99347.47;5030459;28;20025;-73
2023/04/13 05:14:12;;;;;;;2.35;0.80;;;;;;;8.15;100.00;99349.28;5026001;28;20084;-73
2023/04/13 05:16:38;;;;;;;2.42;0.90;;;;;;;8.13;99.89;99341.41;5026559;28;20037;-73
2023/04/13 05:19:11;;;;;;;2.10;0.82;;;;;;;8.18;99.40;99353.63;5031035;28;20040;-73
2023/04/13 05:21:48;;;;;;;1.63;0.80;;;;;;;8.27;98.59;99366.63;5030682;28;20029;-73
2023/04/13 05:24:14;;;;;;;1.83;0.80;;;;;;;8.37;97.77;99376.09;5030498;28;20040;-73
2023/04/13 05:26:41;;;;;;;2.67;0.70;;;;;;;8.39;97.26;99373.47;5034197;28;20515;-73
2023/04/13 05:29:08;;;;;;;2.35;0.80;;;;;;;8.44;96.77;99387.44;5023664;28;20033;-73
2023/04/13 05:31:36;;;;;;;2.63;0.57;;;;;;;8.48;96.57;99389.97;5033965;28;20078;-73
2023/04/13 05:34:02;;;;;;;2.40;0.50;;;;;;;8.56;95.67;99392.47;5023375;28;20534;-73
2023/04/13 05:36:28;;;;;;;1.88;0.47;;;;;;;8.61;94.89;99385.38;5025831;28;20063;-73
2023/04/13 05:38:55;;;;;;;1.88;0.50;;;;;;;8.68;93.62;99384.38;5022708;28;20175;-73
2023/04/13 05:41:23;;;;;;;0.80;0.40;;;;;;;8.72;93.25;99399.25;5024829;28;20128;-72
2023/04/13 05:43:48;;;;;;;2.03;0.40;;;;;;;8.73;92.50;99403.59;5044155;28;20179;-73
2023/04/13 05:46:14;;;;;;;1.10;0.47;;;;;;;8.74;91.82;99404.47;5022982;28;20041;-73
2023/04/13 05:48:42;;;;;;;1.45;0.47;;;;;;;8.71;91.96;99410.63;5031968;28;20025;-73
2023/04/13 05:51:11;;;;;;;1.15;0.40;;;;;;;8.78;91.03;99420.19;5030360;28;20151;-72
2023/04/13 05:53:37;;;;;;;2.60;0.70;;;;;;;8.80;90.53;99427.16;5028135;28;20550;-71
2023/04/13 05:56:03;;;;;;;2.05;0.60;;;;;;;8.83;90.62;99430.63;5025041;28;20033;-72
2023/04/13 05:58:30;;;;;;;1.75;0.60;;;;;;;8.85;89.47;99430.59;5024611;28;20079;-72
2023/04/13 06:01:11;;;;;;;1.05;0.35;;;;;;;8.88;89.67;99443.69;5022661;28;20033;-72
2023/04/13 06:03:36;;;;;;;1.75;0.40;;;;;;;8.91;89.55;99444.53;5047640;28;20060;-72
2023/04/13 06:06:03;;;;;;;2.28;0.82;;;;;;;8.94;88.98;99451.50;5046073;28;20159;-72
2023/04/13 06:08:31;;;;;;;1.25;0.40;;;;;;;8.96;88.28;99455.84;5042241;28;20499;-72
2023/04/13 06:10:57;;;;;;;1.48;0.45;;;;;;;8.95;88.28;99469.00;5035694;28;20044;-72
2023/04/13 06:13:23;;;;;;;0.73;0.25;;;;;;;9.02;87.70;99459.28;5044293;28;20444;-72
2023/04/13 06:15:48;;;;;;;2.13;0.30;;;;;;;9.07;87.41;99452.16;5044397;28;20131;-72
2023/04/13 06:18:15;;;;;;;1.58;0.60;;;;;;;9.10;87.17;99460.00;5035764;28;20503;-72
2023/04/13 06:20:40;;;;;;;3.80;0.52;;;;;;;9.14;86.65;99459.94;5037989;28;20511;-72
2023/04/13 06:23:06;;;;;;;1.60;0.57;;;;;;;9.12;86.16;99461.72;5042784;28;20048;-72
2023/04/13 06:25:31;;;;;;;1.80;0.50;;;;;;;9.07;85.24;99458.28;5029856;28;20052;-72
2023/04/13 06:28:00;;;;;;;1.58;0.50;;;;;;;9.17;86.12;99457.25;5035411;28;20036;-72
2023/04/13 06:30:26;;;;;;;2.83;0.47;;;;;;;9.17;84.49;99454.59;5034383;28;20091;-72
2023/04/13 06:32:54;;;;;;;1.60;0.73;;;;;;;9.17;84.60;99446.72;5047480;28;20033;-72
2023/04/13 06:35:22;;;;;;;1.55;0.70;;;;;;;9.21;84.25;99450.16;5026344;28;20032;-72
2023/04/13 06:37:48;;;;;;;1.60;0.60;;;;;;;9.27;84.17;99455.28;5030498;28;20029;-72
2023/04/13 06:40:20;;;;;;;1.67;0.73;;;;;;;9.25;83.35;99451.84;5022174;28;20044;-73
2023/04/13 06:42:55;;;;;;;2.30;0.60;;;;;;;9.29;83.25;99447.38;5023893;28;20075;-72
2023/04/13 06:45:47;;;;;;;3.22;1.17;;;;;;;9.32;82.26;99460.47;5034784;28;20033;-73
2023/04/13 06:48:19;;;;;;;3.33;0.73;;;;;;;9.33;83.03;99463.09;5023102;28;20086;-72
2023/04/13 06:50:47;;;;;;;2.25;0.60;;;;;;;9.43;82.30;99469.03;5024673;28;20060;-73
2023/04/13 06:53:12;;;;;;;3.17;0.75;;;;;;;9.54;81.95;99469.72;5022724;28;20224;-72
2023/04/13 06:55:39;;;;;;;3.22;0.73;;;;;;;9.60;80.72;99466.97;5032306;28;20037;-72
2023/04/13 06:58:05;;;;;;;1.75;0.80;;;;;;;9.55;79.65;99466.19;5036546;28;20040;-72
2023/04/13 07:00:30;;;;;;;3.88;0.73;;;;;;;9.65;80.25;99448.44;5028313;28;20044;-72
2023/04/13 07:02:58;;;;;;;2.22;0.77;;;;;;;9.70;79.95;99453.63;5021609;28;20029;-72
2023/04/13 07:05:23;;;;;;;2.33;0.70;;;;;;;9.69;79.36;99462.41;5025359;28;20082;-73
2023/04/13 07:07:51;;;;;;;3.05;0.90;;;;;;;9.73;78.44;99464.09;5024981;28;20124;-73
2023/04/13 07:10:17;;;;;;;1.15;0.57;;;;;;;9.71;77.64;99463.25;5021861;28;20040;-73
2023/04/13 07:12:43;;;;;;;2.65;1.25;;;;;;;9.80;77.21;99468.38;5025300;28;20067;-73
2023/04/13 07:15:09;;;;;;;3.65;1.23;;;;;;;9.81;76.87;99467.44;5024056;28;20060;-73
2023/04/13 07:17:35;;;;;;;2.92;0.80;;;;;;;9.99;77.86;99458.31;5028848;28;20029;-72
2023/04/13 07:20:01;;;;;;;2.20;0.68;;;;;;;10.16;76.60;99460.56;5021918;28;20033;-72
2023/04/13 07:22:32;;;;;;;3.88;0.85;;;;;;;10.27;76.66;99461.19;5026151;28;20032;-73
2023/04/13 07:24:58;;;;;;;3.17;0.77;;;;;;;10.39;75.89;99460.97;5024803;28;20029;-73
2023/04/13 07:27:23;;;;;;;1.98;0.68;;;;;;;10.47;75.39;99469.56;5032513;28;20514;-72
2023/04/13 07:29:54;;;;;;;4.00;0.80;;;;;;;10.64;74.92;99486.81;5033030;28;20427;-72
2023/04/13 07:32:22;;;;;;;3.15;0.63;;;;;;;10.66;72.46;99474.44;5030482;28;20549;-73
2023/04/13 07:34:48;;;;;;;3.05;0.80;;;;;;;10.82;73.36;99478.47;5024536;28;20083;-72
2023/04/13 07:37:14;;;;;;;4.35;0.80;;;;;;;10.75;70.98;99483.00;5026236;28;20116;-73
2023/04/13 07:39:42;;;;;;;2.38;1.00;;;;;;;10.77;71.70;99488.25;5024890;28;20037;-73
2023/04/13 07:42:08;;;;;;;3.60;0.93;;;;;;;10.75;70.71;99485.63;5024612;28;20025;-73
2023/04/13 07:44:47;;;;;;;3.88;0.93;;;;;;;10.73;69.80;99494.50;5023457;28;20042;-72
2023/04/13 07:47:13;;;;;;;5.07;1.27;;;;;;;10.82;71.33;99496.94;5022077;28;20044;-73
2023/04/13 07:49:39;;;;;;;3.38;0.98;;;;;;;10.91;69.47;99506.41;5023803;28;20029;-73
2023/04/13 07:52:11;;;;;;;3.75;1.40;;;;;;;10.96;69.53;99500.09;5034049;28;20042;-73
2023/04/13 07:54:37;;;;;;;1.10;0.50;;;;;;;10.81;67.95;99495.19;5036081;28;20026;-72
2023/04/13 07:57:05;;;;;;;1.83;0.80;;;;;;;10.74;68.67;99509.41;5032753;28;20633;-73
2023/04/13 07:59:34;;;;;;;3.22;0.93;;;;;;;10.81;69.64;99504.88;5031044;28;20029;-73
2023/04/13 08:01:59;;;;;;;2.63;0.98;;;;;;;10.90;68.16;99510.81;5025021;28;20043;-73
2023/04/13 08:04:26;;;;;;;3.17;0.88;;;;;;;11.04;68.84;99521.03;5024545;28;20108;-73
2023/04/13 08:06:52;;;;;;;2.75;0.70;;;;;;;10.93;65.65;99529.22;5034734;28;20116;-73
2023/04/13 08:09:18;;;;;;;2.78;0.75;;;;;;;11.01;66.42;99528.19;5027408;28;20037;-72
2023/04/13 08:11:43;;;;;;;2.95;0.90;;;;;;;11.15;65.50;99528.69;5024141;28;20507;-73
2023/04/13 08:14:10;;;;;;;4.07;0.85;;;;;;;11.43;64.52;99520.09;5040727;28;20041;-73
2023/04/13 08:16:37;;;;;;;1.95;0.73;;;;;;;11.56;63.58;99532.06;5023088;28;20036;-73
2023/04/13 08:19:06;;;;;;;2.83;0.70;;;;;;;11.62;63.71;99531.91;5042298;28;20033;-73
2023/04/13 08:21:37;;;;;;;4.28;0.88;;;;;;;11.65;64.15;99530.97;5023346;28;20495;-73
2023/04/13 08:24:03;;;;;;;4.18;1.00;;;;;;;11.92;63.83;99530.25;5033279;28;20032;-73
2023/04/13 08:26:29;;;;;;;5.63;0.98;;;;;;;12.10;62.68;99541.22;5020722;28;20522;-73
2023/04/13 08:28:57;;;;;;;1.73;0.82;;;;;;;12.14;63.00;99572.84;5023810;28;20041;-73
2023/04/13 08:31:23;;;;;;;2.22;0.60;;;;;;;12.01;61.12;99545.84;5029688;28;20083;-73
2023/04/13 08:33:53;;;;;;;6.07;1.73;;;;;;;12.10;62.46;99551.78;5034746;28;20107;-73
2023/04/13 08:36:18;;;;;;;4.53;0.85;;;;;;;12.26;61.58;99553.09;5043416;28;20515;-72
2023/04/13 08:38:49;;;;;;;2.42;0.80;;;;;;;12.17;61.38;99554.22;5025717;28;20503;-72
2023/04/13 08:41:16;;;;;;;2.65;0.80;;;;;;;12.11;61.17;99537.69;5026597;28;20065;-73
2023/04/13 08:43:45;;;;;;;2.28;0.90;;;;;;;12.23;60.76;99547.88;5028463;28;20071;-73
2023/04/13 08:46:18;;;;;;;2.72;0.80;;;;;;;12.19;59.52;99555.06;5027234;28;20043;-72
2023/04/13 08:48:47;;;;;;;3.10;0.80;;;;;;;11.91;59.92;99554.09;5029992;28;20573;-73
2023/04/13 08:51:13;;;;;;;2.72;0.90;;;;;;;12.02;60.81;99552.00;5027159;28;20033;-73
2023/04/13 08:53:40;;;;;;;2.42;0.57;;;;;;;12.07;59.84;99552.75;5029786;28;20026;-73
2023/04/13 08:56:09;;;;;;;2.25;0.60;;;;;;;12.17;60.02;99556.00;5026507;28;20029;-72
2023/04/13 08:58:41;;;;;;;4.82;0.80;;;;;;;12.19;57.89;99552.41;5034371;28;20029;-73
2023/04/13 09:01:07;;;;;;;3.38;0.68;;;;;;;12.13;58.18;99564.94;5042739;28;20076;-72
2023/04/13 09:03:46;;;;;;;3.67;0.82;;;;;;;12.17;58.34;99558.66;5027428;28;20033;-73
2023/04/13 09:06:11;;;;;;;3.85;0.80;;;;;;;12.23;57.94;99556.69;5044946;28;20048;-72
2023/04/13 09:08:39;;;;;;;3.47;1.38;;;;;;;12.32;57.11;99560.88;5024582;28;20029;-72
2023/04/13 09:11:07;;;;;;;3.63;0.80;;;;;;;12.35;55.87;99565.19;5025678;28;20033;-73
2023/04/13 09:13:33;;;;;;;2.90;0.98;;;;;;;12.26;56.14;99567.22;5025525;28;20018;-73
2023/04/13 09:16:00;;;;;;;2.78;0.70;;;;;;;12.61;56.86;99572.38;5026497;28;20600;-73
2023/04/13 09:18:34;;;;;;;2.47;0.52;;;;;;;12.64;55.86;99572.28;5033154;28;20067;-73
2023/04/13 09:21:05;;;;;;;3.03;0.70;;;;;;;12.68;56.47;99574.81;5037149;28;20128;-72
2023/04/13 09:23:30;;;;;;;2.40;0.68;;;;;;;12.70;55.42;99562.38;5042250;28;20130;-73
2023/04/13 09:26:08;;;;;;;1.92;0.63;;;;;;;12.85;56.27;99557.53;5043356;28;20116;-73
2023/04/13 09:28:44;;;;;;;2.88;0.80;;;;;;;12.88;56.44;99571.53;5051353;28;20047;-72
2023/04/13 09:31:12;;;;;;;2.97;0.90;;;;;;;12.85;55.38;99570.75;5043851;28;20094;-73
2023/04/13 09:33:48;;;;;;;1.45;0.70;;;;;;;13.04;54.80;99574.56;5045500;28;20047;-72
2023/04/13 09:36:16;;;;;;;3.65;1.00;;;;;;;13.03;54.55;99567.53;5048498;28;20037;-72
2023/04/13 09:38:43;;;;;;;4.03;1.15;;;;;;;13.01;54.34;99577.31;5043392;28;20036;-73
2023/04/13 09:41:09;;;;;;;4.07;1.38;;;;;;;12.91;55.24;99568.78;5044425;28;20037;-73
2023/04/13 09:43:38;;;;;;;3.63;0.70;;;;;;;13.01;56.85;99566.72;5046607;28;20521;-73
2023/04/13 09:46:10;;;;;;;1.83;0.65;;;;;;;13.35;55.75;99573.63;5047125;28;20045;-72
2023/04/13 09:48:36;;;;;;;3.83;0.93;;;;;;;13.63;54.42;99583.31;5044188;28;20423;-73
2023/04/13 09:51:05;;;;;;;2.72;0.70;;;;;;;13.68;53.41;99570.78;5048703;28;20033;-73
2023/04/13 09:53:46;;;;;;;2.50;0.70;;;;;;;13.44;53.13;99581.28;5043822;28;20060;-73
2023/04/13 09:56:11;;;;;;;2.17;0.70;;;;;;;13.49;53.68;99573.16;5046199;28;20060;-73
2023/04/13 09:58:44;;;;;;;4.45;1.30;;;;;;;13.56;53.59;99585.28;5047516;28;20060;-73
2023/04/13 10:01:10;;;;;;;2.83;0.85;;;;;;;13.38;53.74;99576.16;5044142;28;20141;-72
2023/04/13 10:03:37;;;;;;;5.65;2.00;;;;;;;13.23;54.29;99584.56;5046554;28;20124;-73
2023/04/13 10:06:08;;;;;;;2.40;0.80;;;;;;;13.36;54.59;99578.00;5043273;28;20044;-73
2023/04/13 10:08:45;;;;;;;4.15;0.93;;;;;;;13.68;53.72;99578.72;5047997;28;20086;-73
2023/04/13 10:11:13;;;;;;;6.38;1.38;;;;;;;13.95;53.25;99582.19;5042117;28;20457;-72
2023/04/13 10:14:01;;;;;;;3.65;0.90;;;;;;;14.06;50.88;99579.16;5026078;28;20029;-73
2023/04/13 10:16:52;;;;;;;2.75;0.80;;;;;;;14.01;50.94;99577.53;5040253;28;20499;-73
2023/04/13 10:19:23;;;;;;;2.42;0.50;;;;;;;13.96;50.46;99584.81;5047422;28;20040;-73
2023/04/13 10:21:51;;;;;;;3.25;1.10;;;;;;;13.88;50.58;99581.53;5044092;28;20487;-73
2023/04/13 10:24:18;;;;;;;4.30;0.80;;;;;;;13.85;51.46;99581.66;5040759;28;20041;-73
2023/04/13 10:26:44;;;;;;;2.70;0.90;;;;;;;13.83;51.41;99583.47;5040160;28;20037;-73
2023/04/13 10:29:12;;;;;;;3.22;1.10;;;;;;;13.86;51.92;99578.09;5043254;28;20047;-73
2023/04/13 10:31:40;;;;;;;3.72;0.90;;;;;;;13.92;51.86;99583.19;5045815;28;20041;-73
2023/04/13 10:34:07;;;;;;;5.57;1.20;;;;;;;13.97;50.63;99580.38;5042724;28;20033;-73
2023/04/13 10:36:41;;;;;;;3.42;1.05;;;;;;;14.06;50.11;99579.16;5041354;28;20037;-73
2023/04/13 10:39:07;;;;;;;2.38;1.05;;;;;;;14.17;51.21;99569.91;5040822;28;20140;-73
2023/04/13 10:41:32;;;;;;;3.28;1.50;;;;;;;14.60;50.16;99571.00;5044189;28;20037;-74
2023/04/13 10:44:01;;;;;;;3.63;0.90;;;;;;;14.79;49.99;99570.28;5041679;28;20036;-74
2023/04/13 10:46:27;;;;;;;4.32;1.17;;;;;;;14.75;49.95;99584.59;5045070;28;20411;-73
2023/04/13 10:48:57;;;;;;;3.92;1.13;;;;;;;14.87;50.03;99576.16;5044037;28;20564;-73
2023/04/13 10:51:24;;;;;;;3.78;1.35;;;;;;;14.81;50.46;99584.38;5044502;28;20037;-73
2023/04/13 10:53:50;;;;;;;4.32;1.10;;;;;;;14.89;49.57;99583.16;5047757;28;20488;-73
2023/04/13 10:56:16;;;;;;;3.50;0.80;;;;;;;15.01;49.51;99586.25;5041941;28;20055;-73
2023/04/13 10:58:42;;;;;;;4.85;1.30;;;;;;;15.19;49.95;99580.19;5040405;28;20048;-73
2023/04/13 11:01:09;;;;;;;2.00;0.95;;;;;;;15.71;49.02;99595.84;5043173;28;20112;-73
2023/04/13 11:03:36;;;;;;;3.83;1.08;;;;;;;15.39;48.54;99591.84;5041967;28;20044;-73
2023/04/13 11:06:02;;;;;;;2.85;0.90;;;;;;;15.28;49.02;99582.50;5046685;28;20029;-72
2023/04/13 11:08:29;;;;;;;4.18;0.90;;;;;;;15.18;48.63;99589.13;5044472;28;20033;-72
2023/04/13 11:10:55;;;;;;;2.97;0.70;;;;;;;15.16;49.11;99590.97;5041340;28;20041;-73
2023/04/13 11:13:24;;;;;;;3.05;1.05;;;;;;;15.12;49.54;99589.38;5045679;28;20025;-73
2023/04/13 11:15:50;;;;;;;2.28;0.90;;;;;;;15.11;48.10;99587.63;5040417;28;20053;-73
2023/04/13 11:18:25;;;;;;;3.75;0.70;;;;;;;15.27;46.31;99588.75;5042406;28;20025;-73
2023/04/13 11:20:50;;;;;;;5.72;1.17;;;;;;;15.21;47.15;99591.66;5040206;28;20043;-73
2023/04/13 11:23:17;;;;;;;2.92;1.08;;;;;;;15.56;47.46;99581.34;5040673;28;20033;-73
2023/04/13 11:25:57;;;;;;;2.85;0.80;;;;;;;15.77;46.39;99583.16;5046993;28;20045;-73
2023/04/13 11:28:23;;;;;;;7.45;1.35;;;;;;;15.81;47.22;99583.88;5040861;28;20037;-73
2023/04/13 11:30:54;;;;;;;3.70;1.17;;;;;;;15.91;46.43;99587.03;5045906;28;20509;-73
2023/04/13 11:33:28;;;;;;;5.10;1.48;;;;;;;15.81;46.36;99583.03;5039145;28;20033;-72
2023/04/13 11:35:55;;;;;;;4.80;1.00;;;;;;;15.85;46.40;99589.94;5040587;28;20446;-73
2023/04/13 11:38:21;;;;;;;2.90;0.90;;;;;;;15.99;45.56;99587.56;5023860;28;20364;-73
2023/04/13 11:40:47;;;;;;;4.82;0.85;;;;;;;16.24;44.73;99591.78;5040523;28;20047;-73
2023/04/13 11:43:16;;;;;;;3.35;0.85;;;;;;;16.30;44.21;99584.41;5041080;28;20090;-73
2023/04/13 11:45:42;;;;;;;4.05;1.40;;;;;;;16.24;45.83;99589.13;5041727;28;20038;-73